Time;durP1;ratioP1;P1;durP2;ratioP2;P2;SDS_P1;SDS_P2;PMS_P1;PMS_P2;Temp;Humidity;BMP_temperature;BMP_pressure;BME280_temperature;BME280_humidity;BME280_pressure;Samples;Min_cycle;Max_cycle;Signal;HPM_P1;HPM_P2
2022/07/12 00:00:25;;;;;;;8.57;4.93;;;;;;;10.16;100.00;93719.72;2081609;28;20029;-81
2022/07/12 00:01:26;;;;;;;5.55;4.53;;;;;;;10.17;100.00;93725.81;2076390;28;20025;-81
2022/07/12 00:02:27;;;;;;;8.40;4.80;;;;;;;10.17;100.00;93721.22;2081821;28;20018;-81
2022/07/12 00:03:28;;;;;;;9.32;5.00;;;;;;;10.11;100.00;93720.16;2096046;28;20052;-81
2022/07/12 00:04:31;;;;;;;9.55;5.55;;;;;;;10.15;100.00;93717.44;2096737;28;20020;-80
2022/07/12 00:05:31;;;;;;;8.32;5.32;;;;;;;9.92;100.00;93721.47;2104744;28;20035;-81
2022/07/12 00:06:34;;;;;;;7.80;5.28;;;;;;;9.97;100.00;93720.28;2102245;28;20697;-80
2022/07/12 00:07:35;;;;;;;8.50;4.90;;;;;;;10.04;100.00;93723.63;2103007;28;20024;-80
2022/07/12 00:08:37;;;;;;;8.48;4.78;;;;;;;9.95;100.00;93720.69;2099418;28;20416;-80
2022/07/12 00:09:38;;;;;;;11.52;5.25;;;;;;;9.99;100.00;93728.66;2098277;28;20082;-80
2022/07/12 00:10:40;;;;;;;8.73;4.50;;;;;;;9.95;100.00;93727.94;2087377;28;20052;-80
2022/07/12 00:11:42;;;;;;;7.18;5.28;;;;;;;9.92;100.00;93732.16;2085589;28;20030;-81
2022/07/12 00:12:43;;;;;;;9.00;4.55;;;;;;;9.80;100.00;93730.75;2098120;28;20469;-80
2022/07/12 00:13:44;;;;;;;9.52;5.30;;;;;;;9.84;100.00;93730.72;2095047;28;20424;-80
2022/07/12 00:14:45;;;;;;;7.93;5.25;;;;;;;9.81;100.00;93731.50;2097531;28;20048;-80
2022/07/12 00:15:47;;;;;;;7.22;5.30;;;;;;;9.78;100.00;93727.69;2089652;28;20021;-80
2022/07/12 00:16:48;;;;;;;6.72;5.18;;;;;;;9.75;100.00;93731.16;2092871;28;20025;-80
2022/07/12 00:17:50;;;;;;;7.53;5.25;;;;;;;9.76;100.00;93729.25;2103850;28;20139;-81
2022/07/12 00:18:51;;;;;;;7.15;4.60;;;;;;;9.71;100.00;93732.34;2093473;28;20405;-80
2022/07/12 00:19:52;;;;;;;6.45;4.65;;;;;;;9.73;100.00;93732.72;2089899;28;20020;-80
2022/07/12 00:20:53;;;;;;;7.32;4.60;;;;;;;9.71;100.00;93732.34;2089622;28;20020;-80
2022/07/12 00:21:55;;;;;;;10.57;5.32;;;;;;;9.75;100.00;93727.75;2085506;28;20021;-80
2022/07/12 00:22:56;;;;;;;10.93;4.88;;;;;;;9.56;100.00;93732.44;2098079;28;20515;-80
2022/07/12 00:23:58;;;;;;;9.35;5.65;;;;;;;9.63;100.00;93736.22;2089706;28;20059;-80
2022/07/12 00:24:59;;;;;;;6.15;5.07;;;;;;;9.56;100.00;93737.03;2095335;28;20017;-80
2022/07/12 00:26:04;;;;;;;8.20;4.70;;;;;;;9.64;100.00;93732.41;2089599;28;20029;-81
2022/07/12 00:27:05;;;;;;;8.98;5.15;;;;;;;9.40;100.00;93734.88;2101054;28;20114;-80
2022/07/12 00:28:07;;;;;;;8.02;4.65;;;;;;;9.57;100.00;93730.56;2089664;28;20492;-80
2022/07/12 00:29:08;;;;;;;5.53;4.68;;;;;;;9.60;100.00;93735.09;2076271;28;20804;-80
2022/07/12 00:30:10;;;;;;;12.80;4.93;;;;;;;9.54;100.00;93732.09;2081395;28;20088;-81
2022/07/12 00:31:11;;;;;;;7.70;4.72;;;;;;;9.69;100.00;93735.41;2089916;28;20021;-80
2022/07/12 00:32:15;;;;;;;7.38;5.10;;;;;;;9.75;100.00;93733.84;2089626;28;20065;-80
2022/07/12 00:33:16;;;;;;;7.80;4.82;;;;;;;9.59;100.00;93737.00;2082675;28;20392;-80
2022/07/12 00:34:17;;;;;;;5.25;4.05;;;;;;;9.64;100.00;93738.50;2086560;28;20040;-80
2022/07/12 00:35:18;;;;;;;6.72;4.93;;;;;;;9.66;100.00;93741.53;2089429;28;20096;-80
2022/07/12 00:36:21;;;;;;;8.27;4.47;;;;;;;9.75;100.00;93739.19;2093013;28;20013;-80
2022/07/12 00:37:22;;;;;;;11.25;4.97;;;;;;;9.62;100.00;93734.72;2096985;28;20016;-79
2022/07/12 00:38:23;;;;;;;7.57;4.70;;;;;;;9.67;100.00;93731.63;2097842;28;20354;-80
2022/07/12 00:39:24;;;;;;;7.85;4.95;;;;;;;9.69;100.00;93734.66;2090686;28;20063;-80
2022/07/12 00:40:25;;;;;;;8.10;4.70;;;;;;;9.50;100.00;93734.03;2076763;28;20594;-80
2022/07/12 00:41:27;;;;;;;6.57;4.80;;;;;;;9.43;100.00;93719.97;2085941;28;20569;-80
2022/07/12 00:42:28;;;;;;;9.30;4.78;;;;;;;9.56;100.00;93729.78;2073759;28;20029;-80
2022/07/12 00:43:29;;;;;;;6.38;5.15;;;;;;;9.57;100.00;93731.31;2081297;28;20021;-81
2022/07/12 00:44:33;;;;;;;7.53;4.60;;;;;;;9.64;100.00;93725.16;2089636;28;20103;-80
2022/07/12 00:45:34;;;;;;;5.57;4.72;;;;;;;9.52;100.00;93725.63;2084851;28;20211;-80
2022/07/12 00:46:36;;;;;;;7.50;5.13;;;;;;;9.59;100.00;93728.25;2088487;28;20027;-80
2022/07/12 00:47:45;;;;;;;6.95;5.00;;;;;;;9.57;100.00;93728.66;2097993;28;20028;-80
2022/07/12 00:48:46;;;;;;;7.38;4.68;;;;;;;9.49;100.00;93715.75;2091849;28;20029;-80
2022/07/12 00:49:47;;;;;;;8.02;5.40;;;;;;;9.42;100.00;93719.22;2087887;28;20060;-80
2022/07/12 00:50:49;;;;;;;10.07;4.72;;;;;;;9.50;100.00;93728.69;2096008;28;20035;-81
2022/07/12 00:51:50;;;;;;;7.43;4.75;;;;;;;9.50;100.00;93723.34;2096779;28;20032;-80
2022/07/12 00:52:54;;;;;;;7.88;5.50;;;;;;;9.52;100.00;93718.38;2106232;28;20524;-80
2022/07/12 00:53:58;;;;;;;7.57;4.80;;;;;;;9.54;100.00;93721.41;2094957;28;20079;-80
2022/07/12 00:55:00;;;;;;;9.13;5.38;;;;;;;9.31;100.00;93718.56;2098226;28;20025;-80
2022/07/12 00:56:01;;;;;;;7.32;4.75;;;;;;;9.40;100.00;93720.78;2097055;28;20552;-80
2022/07/12 00:57:03;;;;;;;8.93;5.40;;;;;;;9.39;100.00;93729.91;2096538;28;20111;-80
2022/07/12 00:58:04;;;;;;;10.63;5.20;;;;;;;9.33;100.00;93719.66;2097811;28;20508;-80
2022/07/12 00:59:05;;;;;;;7.63;5.18;;;;;;;9.34;100.00;93728.44;2081298;28;20029;-80
2022/07/12 01:00:09;;;;;;;8.02;4.82;;;;;;;9.36;100.00;93728.81;2097651;28;20389;-80
2022/07/12 01:01:11;;;;;;;9.10;5.63;;;;;;;9.36;100.00;93726.13;2089768;28;20025;-80
2022/07/12 01:02:13;;;;;;;8.05;4.78;;;;;;;9.25;100.00;93722.78;2073639;28;20028;-80
2022/07/12 01:03:14;;;;;;;7.40;4.90;;;;;;;9.22;100.00;93726.22;2097862;28;20036;-81
2022/07/12 01:04:18;;;;;;;7.97;4.63;;;;;;;9.32;100.00;93722.75;2090472;28;20476;-80
2022/07/12 01:05:19;;;;;;;8.05;5.20;;;;;;;9.29;100.00;93720.84;2095942;28;20017;-80
2022/07/12 01:06:20;;;;;;;7.97;4.72;;;;;;;9.34;100.00;93725.75;2094396;28;20107;-80
2022/07/12 01:07:24;;;;;;;4.97;4.35;;;;;;;9.27;100.00;93720.50;2097642;28;20484;-80
2022/07/12 01:08:27;;;;;;;8.23;4.88;;;;;;;9.34;100.00;93717.75;2073481;28;20028;-80
2022/07/12 01:09:28;;;;;;;9.10;4.65;;;;;;;9.39;100.00;93717.34;2089729;28;20049;-80
2022/07/12 01:10:32;;;;;;;6.65;5.07;;;;;;;9.32;100.00;93712.81;2083019;28;20028;-80
2022/07/12 01:11:36;;;;;;;7.00;4.78;;;;;;;9.32;100.00;93717.41;2087399;28;20473;-80
2022/07/12 01:12:37;;;;;;;7.32;4.72;;;;;;;9.23;100.00;93714.41;2084564;28;21065;-80
2022/07/12 01:13:39;;;;;;;6.70;4.70;;;;;;;9.25;100.00;93714.78;2084360;28;20794;-80
2022/07/12 01:14:41;;;;;;;7.57;4.60;;;;;;;9.10;100.00;93714.13;2081266;28;20048;-80
2022/07/12 01:15:45;;;;;;;10.05;4.60;;;;;;;9.21;100.00;93712.13;2089701;28;20020;-80
2022/07/12 01:16:47;;;;;;;7.47;5.13;;;;;;;9.20;100.00;93712.53;2081002;28;20030;-80
2022/07/12 01:17:48;;;;;;;8.85;4.75;;;;;;;9.14;100.00;93719.44;2070941;28;20136;-80
2022/07/12 01:18:49;;;;;;;8.30;5.63;;;;;;;9.19;100.00;93719.78;2097293;28;20020;-80
2022/07/12 01:19:52;;;;;;;8.05;5.13;;;;;;;9.20;100.00;93709.88;2103694;28;20016;-80
2022/07/12 01:20:54;;;;;;;8.68;4.88;;;;;;;9.18;100.00;93715.59;2102212;28;20488;-80
2022/07/12 01:22:00;;;;;;;8.40;5.03;;;;;;;9.27;100.00;93715.16;2104338;28;20097;-80
2022/07/12 01:23:02;;;;;;;5.65;4.38;;;;;;;9.34;100.00;93718.50;2098367;28;20116;-80
2022/07/12 01:24:08;;;;;;;7.78;5.10;;;;;;;9.15;100.00;93719.03;2099995;28;20062;-80
2022/07/12 01:25:10;;;;;;;5.28;4.38;;;;;;;9.27;100.00;93717.81;2097981;28;20023;-81
2022/07/12 01:26:15;;;;;;;5.30;4.32;;;;;;;9.33;100.00;93718.91;2092596;28;20021;-81
2022/07/12 01:27:17;;;;;;;8.75;4.70;;;;;;;9.41;100.00;93707.03;2078429;28;20041;-81
2022/07/12 01:28:18;;;;;;;7.70;4.90;;;;;;;9.37;100.00;93713.56;2098006;28;20028;-81
2022/07/12 01:29:20;;;;;;;6.75;4.80;;;;;;;9.40;100.00;93718.13;2092488;28;20071;-80
2022/07/12 01:30:22;;;;;;;6.97;4.65;;;;;;;9.20;100.00;93715.94;2087525;28;20385;-81
2022/07/12 01:31:23;;;;;;;7.63;4.53;;;;;;;9.21;100.00;93717.47;2097514;28;20056;-80
2022/07/12 01:32:24;;;;;;;6.85;4.63;;;;;;;9.20;100.00;93721.28;2090429;28;20025;-81
2022/07/12 01:33:27;;;;;;;6.55;4.70;;;;;;;9.27;100.00;93717.81;2081099;28;20032;-80
2022/07/12 01:34:28;;;;;;;4.72;4.32;;;;;;;9.28;100.00;93716.66;2096086;28;20370;-80
2022/07/12 01:35:31;;;;;;;5.22;4.43;;;;;;;9.34;100.00;93718.50;2105968;28;20127;-80
2022/07/12 01:36:32;;;;;;;5.97;4.50;;;;;;;9.27;100.00;93718.56;2098858;28;20020;-80
2022/07/12 01:37:36;;;;;;;5.97;4.82;;;;;;;9.34;100.00;93720.41;2097250;28;20039;-80
2022/07/12 01:38:37;;;;;;;7.03;4.57;;;;;;;9.31;100.00;93721.97;2088023;28;20034;-81
2022/07/12 01:39:38;;;;;;;4.97;4.30;;;;;;;9.26;100.00;93716.28;2103761;28;20068;-80
2022/07/12 01:40:39;;;;;;;6.63;4.85;;;;;;;9.34;100.00;93717.75;2090280;28;20079;-80
2022/07/12 01:41:41;;;;;;;4.70;4.22;;;;;;;9.33;100.00;93711.66;2087448;28;20036;-81
2022/07/12 01:42:44;;;;;;;4.35;3.95;;;;;;;9.16;100.00;93720.56;2092146;28;20138;-80
2022/07/12 01:43:45;;;;;;;4.88;4.32;;;;;;;9.19;100.00;93724.34;2094416;28;20501;-80
2022/07/12 01:44:47;;;;;;;5.07;4.57;;;;;;;9.24;100.00;93719.34;2097328;28;20054;-80
2022/07/12 01:45:48;;;;;;;6.95;4.88;;;;;;;9.24;100.00;93716.69;2091612;28;20412;-80
2022/07/12 01:46:50;;;;;;;8.00;4.60;;;;;;;9.32;100.00;93718.16;2083294;28;20029;-80
2022/07/12 01:47:52;;;;;;;4.65;4.25;;;;;;;9.32;100.00;93715.50;2088312;28;20025;-80
2022/07/12 01:48:53;;;;;;;5.00;4.32;;;;;;;9.22;100.00;93713.66;2094884;28;20667;-80
2022/07/12 01:49:54;;;;;;;5.30;4.30;;;;;;;9.30;100.00;93715.09;2088870;28;20606;-81
2022/07/12 01:50:56;;;;;;;4.70;4.25;;;;;;;9.32;100.00;93712.81;2086939;28;20029;-80
2022/07/12 01:51:57;;;;;;;4.72;4.32;;;;;;;9.23;100.00;93711.75;2097142;28;20128;-81
2022/07/12 01:53:00;;;;;;;4.60;4.15;;;;;;;9.32;100.00;93712.81;2097666;28;20107;-81
2022/07/12 01:54:02;;;;;;;4.95;4.45;;;;;;;9.30;100.00;93717.78;2096369;28;20023;-80
2022/07/12 01:55:06;;;;;;;11.57;4.70;;;;;;;9.21;100.00;93714.03;2092895;28;20078;-80
2022/07/12 01:56:07;;;;;;;9.57;4.43;;;;;;;9.25;100.00;93706.78;2089542;28;20033;-80
2022/07/12 01:57:08;;;;;;;8.05;4.78;;;;;;;9.15;100.00;93707.63;2091513;28;20368;-81
2022/07/12 01:58:12;;;;;;;6.70;5.00;;;;;;;9.20;100.00;93709.88;2080779;28;20131;-81
2022/07/12 01:59:13;;;;;;;5.95;4.68;;;;;;;9.21;100.00;93714.78;2095613;28;20020;-81
2022/07/12 02:00:15;;;;;;;6.60;4.50;;;;;;;9.19;100.00;93709.09;2102586;28;20026;-80
2022/07/12 02:01:16;;;;;;;7.60;4.80;;;;;;;9.26;100.00;93700.28;2100831;28;20049;-81
2022/07/12 02:02:17;;;;;;;6.93;4.88;;;;;;;9.34;100.00;93710.50;2092886;28;20028;-81
2022/07/12 02:03:19;;;;;;;5.13;4.47;;;;;;;9.36;100.00;93715.47;2100254;28;20032;-80
2022/07/12 02:04:21;;;;;;;5.72;4.70;;;;;;;9.41;100.00;93706.28;2089140;28;20032;-81
2022/07/12 02:05:22;;;;;;;7.25;5.22;;;;;;;9.42;100.00;93713.13;2105020;28;20011;-81
2022/07/12 02:06:24;;;;;;;7.30;5.57;;;;;;;9.29;100.00;93715.50;2105366;28;20024;-80
2022/07/12 02:07:27;;;;;;;6.60;4.78;;;;;;;9.27;100.00;93712.50;2083113;28;20058;-80
2022/07/12 02:08:28;;;;;;;6.90;4.57;;;;;;;9.17;100.00;93710.63;2085399;28;20029;-80
2022/07/12 02:09:30;;;;;;;8.60;4.85;;;;;;;9.30;100.00;93720.44;2080894;28;20052;-81
2022/07/12 02:10:31;;;;;;;7.25;4.88;;;;;;;9.29;100.00;93710.94;2091842;28;20024;-80
2022/07/12 02:11:32;;;;;;;7.93;4.95;;;;;;;9.25;100.00;93712.88;2080687;28;20025;-80
2022/07/12 02:14:16;;;;;;;;;;;;;;;9.39;100.00;93713.91;2145292;27;20112;-82
2022/07/12 02:15:18;;;;;;;5.95;4.13;;;;;;;9.27;100.00;93717.81;2121250;28;20024;-82
2022/07/12 02:16:19;;;;;;;7.15;4.50;;;;;;;9.26;100.00;93719.72;2104497;28;20048;-82
2022/07/12 02:17:20;;;;;;;6.97;4.97;;;;;;;9.27;100.00;93709.81;2112686;28;20020;-82
2022/07/12 02:18:21;;;;;;;7.38;4.55;;;;;;;9.21;100.00;93711.38;2121347;27;20048;-82
2022/07/12 02:19:22;;;;;;;5.38;3.92;;;;;;;9.26;100.00;93713.63;2112755;28;20648;-82
2022/07/12 02:20:23;;;;;;;5.90;4.55;;;;;;;9.10;100.00;93708.03;2104553;28;20032;-82
2022/07/12 02:21:24;;;;;;;5.18;4.57;;;;;;;9.18;100.00;93712.19;2111607;28;20098;-81
2022/07/12 02:22:26;;;;;;;5.10;4.60;;;;;;;9.19;100.00;93721.69;2111355;28;20061;-82
2022/07/12 02:23:27;;;;;;;6.82;4.38;;;;;;;9.15;100.00;93710.28;2102997;28;20027;-82
2022/07/12 02:24:28;;;;;;;5.00;4.50;;;;;;;9.22;100.00;93707.53;2104472;28;20024;-82
2022/07/12 02:25:31;;;;;;;5.22;4.72;;;;;;;9.30;100.00;93715.09;2104252;28;20110;-81
2022/07/12 02:26:34;;;;;;;6.95;4.78;;;;;;;9.32;100.00;93712.06;2112987;27;20015;-82
2022/07/12 02:27:35;;;;;;;7.50;5.50;;;;;;;9.21;100.00;93701.47;2124147;27;20615;-82
2022/07/12 02:28:37;;;;;;;4.90;4.35;;;;;;;9.27;100.00;93709.81;2112952;28;20028;-82
2022/07/12 02:29:41;;;;;;;4.32;3.92;;;;;;;9.25;100.00;93707.53;2109009;28;20023;-82
2022/07/12 02:30:42;;;;;;;6.25;4.50;;;;;;;9.07;100.00;93707.66;2113889;27;20016;-82
2022/07/12 02:31:43;;;;;;;5.53;4.10;;;;;;;9.10;100.00;93708.03;2112164;28;20395;-82
2022/07/12 02:32:45;;;;;;;5.72;4.68;;;;;;;9.00;100.00;93715.72;2112715;28;20031;-82
2022/07/12 02:33:46;;;;;;;4.80;4.40;;;;;;;8.95;100.00;93710.78;2103262;28;20434;-82
2022/07/12 02:34:48;;;;;;;5.13;4.00;;;;;;;8.96;100.00;93720.31;2120307;27;20039;-81
2022/07/12 02:35:49;;;;;;;4.97;4.38;;;;;;;8.98;100.00;93712.66;2121367;27;20027;-82
2022/07/12 02:36:50;;;;;;;5.10;4.22;;;;;;;8.87;100.00;93713.88;2121063;28;20020;-82
2022/07/12 02:37:51;;;;;;;7.90;4.38;;;;;;;8.80;100.00;93714.69;2104564;28;20028;-82
2022/07/12 02:38:52;;;;;;;6.05;3.88;;;;;;;8.89;100.00;93708.91;2102641;28;20020;-82
2022/07/12 02:40:53;;;;;;;4.40;4.00;;;;;;;8.92;100.00;93710.81;2109917;27;20031;-82
2022/07/12 02:41:18;;;;;;;5.63;4.13;;;;;;;8.89;100.00;93711.59;2129666;27;20023;-82
2022/07/12 02:42:20;;;;;;;5.55;4.43;;;;;;;8.96;100.00;93712.31;2112159;28;20019;-82
2022/07/12 02:43:27;;;;;;;6.40;4.40;;;;;;;8.89;100.00;93707.00;2096266;28;20028;-82
2022/07/12 02:44:29;;;;;;;7.47;4.78;;;;;;;8.90;100.00;93711.19;2113188;27;20396;-81
2022/07/12 02:45:30;;;;;;;5.55;4.20;;;;;;;8.98;100.00;93706.56;2121237;28;20031;-82
2022/07/12 02:46:35;;;;;;;5.75;4.10;;;;;;;8.91;100.00;93709.28;2112868;28;20027;-82
2022/07/12 02:47:40;;;;;;;4.70;4.10;;;;;;;8.97;100.00;93708.50;2107831;28;20104;-81
2022/07/12 02:48:41;;;;;;;5.43;4.45;;;;;;;8.86;100.00;93718.44;2119166;27;20081;-82
2022/07/12 02:49:42;;;;;;;4.47;4.10;;;;;;;8.77;100.00;93710.13;2127352;27;20528;-81
2022/07/12 02:50:44;;;;;;;4.25;3.85;;;;;;;8.91;100.00;93707.38;2112380;28;20507;-81
2022/07/12 02:51:45;;;;;;;4.85;4.28;;;;;;;8.91;100.00;93709.28;2112645;28;20032;-81
2022/07/12 02:52:46;;;;;;;4.80;4.20;;;;;;;8.83;100.00;93717.31;2105934;28;20459;-82
2022/07/12 02:53:47;;;;;;;4.47;4.07;;;;;;;8.85;100.00;93718.84;2118136;27;20059;-82
2022/07/12 02:54:49;;;;;;;6.45;4.28;;;;;;;8.86;100.00;93720.34;2114397;28;20111;-82
2022/07/12 02:55:50;;;;;;;5.82;4.70;;;;;;;8.79;100.00;93721.91;2120872;27;20023;-82
2022/07/12 02:56:51;;;;;;;5.53;3.92;;;;;;;8.74;100.00;93721.56;2116501;28;20100;-82
2022/07/12 02:57:52;;;;;;;4.93;4.15;;;;;;;8.78;100.00;93716.97;2111305;27;20023;-82
2022/07/12 02:58:53;;;;;;;6.07;4.70;;;;;;;8.85;100.00;93718.84;2121184;27;20293;-81
2022/07/12 02:59:54;;;;;;;7.15;5.03;;;;;;;8.70;100.00;93713.59;2104418;28;20101;-81
2022/07/12 03:00:56;;;;;;;5.50;4.80;;;;;;;8.63;100.00;93720.84;2112381;28;20118;-82
2022/07/12 03:01:57;;;;;;;4.90;4.40;;;;;;;8.63;100.00;93720.84;2112850;27;20107;-82
2022/07/12 03:02:59;;;;;;;5.22;4.47;;;;;;;8.67;100.00;93726.94;2120825;28;20079;-81
2022/07/12 03:04:00;;;;;;;5.20;4.47;;;;;;;8.76;100.00;93722.69;2120992;27;20019;-81
2022/07/12 03:05:01;;;;;;;5.82;4.40;;;;;;;8.79;100.00;93729.16;2108285;28;20115;-81
2022/07/12 03:06:03;;;;;;;7.32;4.97;;;;;;;8.77;100.00;93732.19;2109976;28;20072;-81
2022/07/12 03:07:04;;;;;;;6.65;4.22;;;;;;;8.57;100.00;93723.16;2104180;28;20039;-82
2022/07/12 03:08:06;;;;;;;4.35;3.95;;;;;;;8.42;100.00;93725.13;2110272;28;20020;-81
2022/07/12 03:09:07;;;;;;;4.95;4.10;;;;;;;8.57;100.00;93718.59;2103933;28;20059;-82
2022/07/12 03:10:09;;;;;;;4.63;4.22;;;;;;;8.58;100.00;93722.78;2095777;28;20024;-81
2022/07/12 03:11:10;;;;;;;5.75;4.38;;;;;;;8.55;100.00;93715.53;2104071;28;20024;-82
2022/07/12 03:12:12;;;;;;;5.50;4.25;;;;;;;8.63;100.00;93715.53;2103328;28;20074;-82
2022/07/12 03:13:13;;;;;;;4.68;4.18;;;;;;;8.62;100.00;93720.09;2098251;28;20584;-82
2022/07/12 03:14:14;;;;;;;4.78;4.25;;;;;;;8.55;100.00;93717.44;2095608;28;20098;-82
2022/07/12 03:15:16;;;;;;;4.55;4.13;;;;;;;8.62;100.00;93727.34;2101162;28;20069;-82
2022/07/12 03:16:17;;;;;;;5.18;4.28;;;;;;;8.60;100.00;93721.63;2106328;28;20029;-82
2022/07/12 03:17:18;;;;;;;6.15;4.05;;;;;;;8.64;100.00;93730.34;2119936;27;20106;-81
2022/07/12 03:18:19;;;;;;;4.97;4.35;;;;;;;8.66;100.00;93733.41;2106621;28;20603;-82
2022/07/12 03:19:20;;;;;;;4.28;3.88;;;;;;;8.79;100.00;93739.81;2097498;28;20029;-82
2022/07/12 03:20:22;;;;;;;9.38;5.22;;;;;;;8.72;100.00;93737.94;2095611;28;20036;-81
2022/07/12 03:21:23;;;;;;;5.80;4.00;;;;;;;8.60;100.00;93733.03;2103888;28;20048;-81
2022/07/12 03:22:24;;;;;;;4.72;4.32;;;;;;;8.64;100.00;93733.03;2096614;28;20041;-81
2022/07/12 03:23:25;;;;;;;5.28;4.68;;;;;;;8.70;100.00;93750.16;2103837;28;20020;-81
2022/07/12 03:24:26;;;;;;;5.78;4.25;;;;;;;8.80;100.00;93742.09;2092163;28;20029;-81
2022/07/12 03:25:27;;;;;;;6.68;5.07;;;;;;;8.78;100.00;93743.59;2082851;28;20134;-82
2022/07/12 03:26:29;;;;;;;5.78;4.40;;;;;;;8.84;100.00;93744.75;2093212;28;20046;-81
2022/07/12 03:27:33;;;;;;;7.47;4.57;;;;;;;8.93;100.00;93746.97;2098377;28;20017;-81
2022/07/12 03:28:34;;;;;;;6.85;4.80;;;;;;;8.83;100.00;93753.91;2106477;28;20024;-81
2022/07/12 03:29:37;;;;;;;6.93;4.68;;;;;;;8.83;100.00;93749.31;2095253;28;20032;-82
2022/07/12 03:30:38;;;;;;;6.07;4.50;;;;;;;8.84;100.00;93747.41;2090342;28;20060;-81
2022/07/12 03:31:39;;;;;;;5.95;4.28;;;;;;;8.91;100.00;93743.94;2089906;28;20039;-82
2022/07/12 03:32:41;;;;;;;4.88;4.47;;;;;;;8.81;100.00;93743.59;2090161;28;20032;-82
2022/07/12 03:33:42;;;;;;;5.03;4.53;;;;;;;8.74;100.00;93737.56;2092225;28;20103;-82
2022/07/12 03:34:44;;;;;;;4.75;4.35;;;;;;;8.77;100.00;93744.75;2098586;28;20032;-82
2022/07/12 03:35:45;;;;;;;7.40;4.93;;;;;;;8.77;100.00;93740.19;2095416;28;20032;-81
2022/07/12 03:36:46;;;;;;;5.65;4.72;;;;;;;8.61;100.00;93747.13;2091606;28;20017;-82
2022/07/12 03:37:49;;;;;;;4.70;4.20;;;;;;;8.55;100.00;93744.09;2098179;28;20055;-82
2022/07/12 03:38:50;;;;;;;6.05;4.97;;;;;;;8.53;100.00;93744.50;2103482;28;20558;-82
2022/07/12 03:39:53;;;;;;;5.28;4.43;;;;;;;8.64;100.00;93741.00;2098307;28;20084;-81
2022/07/12 03:40:55;;;;;;;6.32;4.65;;;;;;;8.52;100.00;93735.00;2090604;28;20092;-82
2022/07/12 03:41:56;;;;;;;4.82;4.40;;;;;;;8.54;100.00;93738.00;2099730;28;20028;-81
2022/07/12 03:42:58;;;;;;;6.65;4.68;;;;;;;8.61;100.00;93745.22;2106753;28;20434;-81
2022/07/12 03:43:59;;;;;;;5.65;4.72;;;;;;;8.68;100.00;93747.84;2094937;28;20031;-81
2022/07/12 03:45:01;;;;;;;7.50;4.53;;;;;;;8.54;100.00;93746.00;2089975;28;20025;-82
2022/07/12 03:46:02;;;;;;;6.20;4.32;;;;;;;8.47;100.00;93751.38;2098163;28;20017;-81
2022/07/12 03:47:03;;;;;;;4.85;4.18;;;;;;;8.55;100.00;93744.09;2098088;28;20055;-81
2022/07/12 03:48:06;;;;;;;6.32;4.47;;;;;;;8.64;100.00;93755.09;2102208;28;20026;-81
2022/07/12 03:49:07;;;;;;;5.03;4.53;;;;;;;8.77;100.00;93756.19;2089133;28;20511;-81
2022/07/12 03:50:13;;;;;;;4.60;4.20;;;;;;;8.78;100.00;93757.72;2097539;28;20099;-82
2022/07/12 03:51:14;;;;;;;6.32;4.35;;;;;;;8.69;100.00;93752.06;2104641;28;20038;-82
2022/07/12 03:52:15;;;;;;;4.57;4.07;;;;;;;8.75;100.00;93749.72;2102432;28;20024;-81
2022/07/12 03:53:18;;;;;;;4.82;4.43;;;;;;;8.64;100.00;93755.09;2089513;28;20108;-81
2022/07/12 03:54:19;;;;;;;4.30;3.90;;;;;;;8.67;100.00;93748.25;2082182;28;20053;-82
2022/07/12 03:55:20;;;;;;;5.05;4.50;;;;;;;8.75;100.00;93745.16;2081690;28;20049;-82
2022/07/12 03:57:42;;;;;;;6.35;4.28;;;;;;;8.85;100.00;93742.81;2099930;28;20024;-81
2022/07/12 03:58:44;;;;;;;5.30;4.32;;;;;;;8.81;100.00;93740.19;2096528;28;20028;-81
2022/07/12 03:59:45;;;;;;;4.50;4.03;;;;;;;8.69;100.00;93740.59;2087272;28;20028;-81
2022/07/12 04:00:47;;;;;;;4.88;3.90;;;;;;;8.61;100.00;93739.16;2089779;28;20028;-82
2022/07/12 04:01:48;;;;;;;4.85;4.15;;;;;;;8.68;100.00;93741.75;2104707;28;20016;-82
2022/07/12 04:02:49;;;;;;;4.72;4.32;;;;;;;8.74;100.00;93742.91;2103555;28;20049;-82
2022/07/12 04:03:51;;;;;;;4.32;3.95;;;;;;;8.62;100.00;93749.41;2085225;28;20029;-82
2022/07/12 04:04:52;;;;;;;4.63;3.78;;;;;;;8.58;100.00;93748.66;2098025;28;20020;-82
2022/07/12 04:05:54;;;;;;;6.25;4.40;;;;;;;8.69;100.00;93753.94;2106645;28;20123;-82
2022/07/12 04:06:55;;;;;;;4.45;3.88;;;;;;;8.71;100.00;93746.31;2103089;28;20032;-82
2022/07/12 04:07:58;;;;;;;4.70;4.20;;;;;;;8.57;100.00;93749.81;2098187;28;20115;-81
2022/07/12 04:08:59;;;;;;;4.80;3.60;;;;;;;8.67;100.00;93745.56;2095805;28;20024;-81
2022/07/12 04:10:01;;;;;;;5.13;4.63;;;;;;;8.73;100.00;93750.09;2102811;28;20026;-82
2022/07/12 04:11:02;;;;;;;5.30;4.43;;;;;;;8.74;100.00;93753.56;2103999;28;20051;-82
2022/07/12 04:12:04;;;;;;;5.35;3.97;;;;;;;8.75;100.00;93755.06;2103351;28;20024;-81
2022/07/12 04:13:05;;;;;;;4.53;4.10;;;;;;;8.73;100.00;93752.78;2081631;28;20040;-81
2022/07/12 04:14:06;;;;;;;4.90;4.00;;;;;;;8.67;100.00;93748.25;2086813;28;20049;-82
2022/07/12 04:15:08;;;;;;;4.53;4.13;;;;;;;8.58;100.00;93752.09;2097889;28;20086;-82
2022/07/12 04:16:12;;;;;;;3.95;3.63;;;;;;;8.56;100.00;93750.97;2110418;28;20644;-81
2022/07/12 04:17:15;;;;;;;5.75;4.20;;;;;;;8.53;100.00;93759.72;2101483;28;20059;-81
2022/07/12 04:18:18;;;;;;;6.30;4.03;;;;;;;8.59;100.00;93758.16;2086301;28;20033;-82
2022/07/12 04:19:19;;;;;;;4.30;3.90;;;;;;;8.63;100.00;93755.50;2089603;28;20056;-82
2022/07/12 04:20:20;;;;;;;4.45;4.05;;;;;;;8.60;100.00;93764.25;2088039;28;20017;-82
2022/07/12 04:21:22;;;;;;;4.72;4.20;;;;;;;8.59;100.00;93755.50;2093638;28;20013;-82
2022/07/12 04:22:23;;;;;;;5.32;3.97;;;;;;;8.61;100.00;93760.47;2103200;28;20087;-82
2022/07/12 04:23:24;;;;;;;4.43;4.03;;;;;;;8.57;100.00;93757.81;2108233;28;20028;-82
2022/07/12 04:24:26;;;;;;;4.15;3.75;;;;;;;8.57;100.00;93755.91;2103251;28;20019;-82
2022/07/12 04:25:27;;;;;;;6.40;4.38;;;;;;;8.62;100.00;93756.66;2098134;28;20070;-81
2022/07/12 04:26:29;;;;;;;4.85;3.95;;;;;;;8.64;100.00;93755.09;2097533;28;20035;-79
2022/07/12 04:27:30;;;;;;;4.30;3.90;;;;;;;8.72;100.00;93756.59;2094875;28;20471;-81
2022/07/12 04:28:31;;;;;;;5.88;3.88;;;;;;;8.74;100.00;93756.22;2097896;28;20028;-81
2022/07/12 04:29:32;;;;;;;4.35;3.90;;;;;;;8.77;100.00;93755.44;2097625;28;20104;-81
2022/07/12 04:30:33;;;;;;;4.22;3.83;;;;;;;8.76;100.00;93762.66;2097769;28;20527;-81
2022/07/12 04:31:34;;;;;;;4.07;3.78;;;;;;;8.76;100.00;93757.34;2096245;28;20480;-81
2022/07/12 04:32:36;;;;;;;5.18;3.65;;;;;;;8.81;100.00;93758.84;2094630;28;20108;-81
2022/07/12 04:33:37;;;;;;;4.70;3.97;;;;;;;8.85;100.00;93754.25;2097821;28;20115;-82
2022/07/12 04:34:38;;;;;;;8.85;3.88;;;;;;;8.86;100.00;93750.44;2094492;28;20028;-81
2022/07/12 04:35:40;;;;;;;4.38;3.95;;;;;;;8.89;100.00;93757.66;2088121;28;20079;-81
2022/07/12 04:36:42;;;;;;;4.90;4.50;;;;;;;8.90;100.00;93761.09;2082608;28;20141;-82
2022/07/12 04:37:43;;;;;;;4.70;4.13;;;;;;;8.88;100.00;93756.16;2090415;28;20033;-82
2022/07/12 04:38:44;;;;;;;4.55;4.05;;;;;;;8.92;100.00;93761.47;2105903;28;20024;-82
2022/07/12 04:39:45;;;;;;;4.00;3.70;;;;;;;8.99;100.00;93766.75;2112098;28;20027;-82
2022/07/12 04:40:48;;;;;;;4.95;4.00;;;;;;;8.99;100.00;93758.75;2100454;28;20039;-82
2022/07/12 04:41:49;;;;;;;4.55;4.15;;;;;;;9.00;100.00;93757.59;2095066;28;20025;-82
2022/07/12 04:42:51;;;;;;;5.95;3.95;;;;;;;9.02;100.00;93757.97;2083859;28;20029;-81
2022/07/12 04:43:52;;;;;;;5.80;3.75;;;;;;;9.07;100.00;93758.31;2088730;28;20032;-82
2022/07/12 04:44:56;;;;;;;5.13;4.28;;;;;;;9.07;100.00;93765.56;2085057;28;20099;-82
2022/07/12 04:46:06;;;;;;;5.63;3.92;;;;;;;9.10;100.00;93764.78;2091652;28;20090;-82
2022/07/12 04:47:07;;;;;;;3.85;3.55;;;;;;;9.12;100.00;93762.47;2097896;28;20070;-82
2022/07/12 04:48:08;;;;;;;6.82;4.47;;;;;;;9.17;100.00;93766.66;2105381;28;20028;-81
2022/07/12 04:49:09;;;;;;;4.68;4.10;;;;;;;9.15;100.00;93756.38;2102503;28;20476;-82
2022/07/12 04:50:12;;;;;;;4.50;4.10;;;;;;;9.17;100.00;93766.66;2104958;28;20867;-82
2022/07/12 04:51:15;;;;;;;5.30;4.18;;;;;;;9.22;100.00;93760.91;2106113;28;20551;-82
2022/07/12 04:52:16;;;;;;;4.50;4.10;;;;;;;9.22;100.00;93764.34;2103436;28;20495;-82
2022/07/12 04:53:17;;;;;;;5.25;4.13;;;;;;;9.23;100.00;93757.84;2094008;28;20103;-82
2022/07/12 04:54:18;;;;;;;4.30;3.90;;;;;;;9.27;100.00;93763.94;2088759;28;20021;-82